AirNav   Pilot Hours Calculator
 
 1122 users online  

TA37 Vaca Moo Airport
Ben Wheeler, Texas, USA

GOING TO BEN WHEELER?


FAA INFORMATION EFFECTIVE 16 JUNE 2022

Location

FAA Identifier: TA37
Lat/Long: 32-25-39.6500N 095-42-41.0000W
32-25.660833N 095-42.683333W
32.4276806,-95.7113889
(estimated)
Elevation: 590 ft. / 180 m (estimated)
From city: 1 mile SSW of BEN WHEELER, TX
Time zone: UTC -5 (UTC -6 during Standard Time)
Zip code: 75754

Airport Operations

Airport use: Private use. Permission required prior to landing
Activation date: 10/2016
Control tower: no
ARTCC: FORT WORTH CENTER
FSS: MONTGOMERY COUNTY FLIGHT SERVICE STATION
Attendance: UNATNDD
CONTINUOUS
Wind indicator: lighted
Segmented circle: no
Beacon: white-green (lighted land airport)
Operates sunset to sunrise.

Airport Communications

UNICOM: 123.0
WX ASOS at TYR (16 nm E): PHONE 903-535-9105
WX AWOS-3PT at F44 (17 nm S): 119.6 (903-670-1247)

Airport Services

Parking: hangars and tiedowns
Airframe service: MAJOR
Powerplant service: MAJOR

Runway Information

Runway 18/36

Dimensions: 2480 x 50 ft. / 756 x 15 m
Surface: turf, in good condition
Runway edge lights: low intensity
ACTVT MIRL RWY 18/36 - 123.0
RUNWAY 18  RUNWAY 36
Traffic pattern: leftleft

Airport Ownership and Management from official FAA records

Ownership: Privately-owned
Owner: C.R. RODRIGUEZ-BOTET
727 VZCR 4701
BEN WHEELER, TX 75754
Phone 903-980-8060
VACAMOOAIRPORT@GMAIL.COM
Manager: C.R. RODRIGUEZ-BOTET
727 VZCR 4701
BEN WHEELER, TX 75754
Phone 903-980-8060

Airport Operational Statistics

Aircraft based on the field: 7
Single engine airplanes: 6
Ultralights: 1
    

Additional Remarks

FOR CD CTC FORT WORTH ARTCC AT 817-858-7584.

Instrument Procedures

There are no published instrument procedures at TA37.

Some nearby airports with instrument procedures:

KTYR - Tyler Pounds Regional Airport (16 nm E)
F44 - Athens Municipal Airport (17 nm S)
KJDD - Wood County Airport - Collins Field (22 nm NE)
KTRL - Terrell Municipal Airport (33 nm NW)
F51 - Winnsboro Municipal Airport (38 nm NE)
 
Loc | Ops | Rwys | IFR | FBO | Links
Com | Nav | Svcs | Stats | Notes

City of Fort Worth
 
Aerial photo
No photo
 
Airport distance calculator
Flying to Vaca Moo Airport? Find the distance to fly.

From to TA37

Sunrise and sunset
Times for 29-Jun-2022
 Local
(UTC-5)
 Zulu
(UTC)
Morning civil twilight05:5110:51
Sunrise06:2011:20
Sunset20:3301:33
Evening civil twilight21:0102:01

Current date and time
Zulu (UTC)  30-Jun-2022 02:26:11
Local (UTC-5)  29-Jun-2022 21:26:11
 
METAR
KTYR 
16nm E 
300153Z 05004KT 10SM CLR 31/14 A3007 RMK AO2 SLP172 T03060144
KF44 
17nm S 
300215Z AUTO 00000KT 10SM CLR 30/14 A3005 RMK AO2
KJDD 
22nm NE 
300215Z AUTO 00000KT CLR 26/14 A3008 RMK AO2 PWINO
TAF
KTYR 
16nm E 
291720Z 2918/3018 07008G14KT P6SM SKC FM300100 11005KT P6SM FEW250 FM301300 16006KT P6SM SCT250
NOTAMs
Click for the latest NOTAMs
NOTAMs are issued by the DoD/FAA and will open in a separate window not controlled by AirNav.

 

 
 

Would you like to see your business listed on this page?

 If your business provides an interesting product or service to pilots, flight crews, aircraft, or users of the Vaca Moo Airport, you should consider listing it here.  To start the listing process, click on the button below
 
Add a business
 

Other Pages about Vaca Moo Airport

Update a link
 
Copyright © AirNav, LLC. All rights reserved. Privacy Policy  Contact